sensor_id;sensor_type;location;lat;lon;timestamp;pressure;altitude;pressure_sealevel;temperature;humidity
29383;BME280;16365;51.598;7.668;2023-04-07T00:00:02;100762.56;;;14.63;45.88
29383;BME280;16365;51.598;7.668;2023-04-07T00:02:30;100756.19;;;14.62;45.57
29383;BME280;16365;51.598;7.668;2023-04-07T00:04:58;100760.97;;;14.62;45.64
29383;BME280;16365;51.598;7.668;2023-04-07T00:07:25;100758.16;;;14.62;45.89
29383;BME280;16365;51.598;7.668;2023-04-07T00:09:51;100752.59;;;14.62;45.65
29383;BME280;16365;51.598;7.668;2023-04-07T00:12:18;100762.56;;;14.63;46.28
29383;BME280;16365;51.598;7.668;2023-04-07T00:14:44;100758.63;;;14.64;45.95
29383;BME280;16365;51.598;7.668;2023-04-07T00:17:11;100753.84;;;14.64;46.20
29383;BME280;16365;51.598;7.668;2023-04-07T00:19:37;100758.63;;;14.64;46.36
29383;BME280;16365;51.598;7.668;2023-04-07T00:22:04;100755.50;;;14.65;46.27
29383;BME280;16365;51.598;7.668;2023-04-07T00:24:30;100751.53;;;14.67;46.52
29383;BME280;16365;51.598;7.668;2023-04-07T00:27:00;100757.56;;;14.69;46.19
29383;BME280;16365;51.598;7.668;2023-04-07T00:29:27;100748.84;;;14.70;46.48
29383;BME280;16365;51.598;7.668;2023-04-07T00:31:53;100749.66;;;14.71;46.88
29383;BME280;16365;51.598;7.668;2023-04-07T00:34:20;100752.06;;;14.72;46.37
29383;BME280;16365;51.598;7.668;2023-04-07T00:36:46;100745.31;;;14.73;46.11
29383;BME280;16365;51.598;7.668;2023-04-07T00:39:18;100746.94;;;14.74;46.47
29383;BME280;16365;51.598;7.668;2023-04-07T00:41:44;100743.81;;;14.76;46.33
29383;BME280;16365;51.598;7.668;2023-04-07T00:44:12;100735.78;;;14.74;46.51
29383;BME280;16365;51.598;7.668;2023-04-07T00:46:39;100740.56;;;14.74;46.57
29383;BME280;16365;51.598;7.668;2023-04-07T00:49:06;100738.56;;;14.74;46.42
29383;BME280;16365;51.598;7.668;2023-04-07T00:51:36;100733.00;;;14.74;46.64
29383;BME280;16365;51.598;7.668;2023-04-07T00:54:02;100736.03;;;14.69;46.94
29383;BME280;16365;51.598;7.668;2023-04-07T00:56:29;100727.41;;;14.74;46.19
29383;BME280;16365;51.598;7.668;2023-04-07T00:58:56;100737.06;;;14.77;46.35
29383;BME280;16365;51.598;7.668;2023-04-07T01:01:26;100730.19;;;14.74;47.52
29383;BME280;16365;51.598;7.668;2023-04-07T01:04:12;100728.25;;;14.75;48.04
29383;BME280;16365;51.598;7.668;2023-04-07T01:06:46;100723.09;;;14.77;47.32
29383;BME280;16365;51.598;7.668;2023-04-07T01:09:22;100722.28;;;14.76;47.36
29383;BME280;16365;51.598;7.668;2023-04-07T01:14:23;100721.13;;;14.77;46.76
29383;BME280;16365;51.598;7.668;2023-04-07T01:16:51;100728.69;;;14.77;46.80
29383;BME280;16365;51.598;7.668;2023-04-07T01:19:32;100714.28;;;14.75;47.34
29383;BME280;16365;51.598;7.668;2023-04-07T01:21:59;100724.28;;;14.76;46.45
29383;BME280;16365;51.598;7.668;2023-04-07T01:25:02;100713.38;;;14.71;48.04
29383;BME280;16365;51.598;7.668;2023-04-07T01:30:31;100715.00;;;14.72;47.41
29383;BME280;16365;51.598;7.668;2023-04-07T01:32:59;100719.41;;;14.73;46.76
29383;BME280;16365;51.598;7.668;2023-04-07T01:35:28;100702.66;;;14.73;47.41
29383;BME280;16365;51.598;7.668;2023-04-07T01:37:56;100709.16;;;14.77;46.80
29383;BME280;16365;51.598;7.668;2023-04-07T01:40:24;100712.31;;;14.75;46.67
29383;BME280;16365;51.598;7.668;2023-04-07T01:42:51;100707.06;;;14.74;46.92
29383;BME280;16365;51.598;7.668;2023-04-07T01:45:19;100698.25;;;14.72;47.34
29383;BME280;16365;51.598;7.668;2023-04-07T01:47:46;100709.78;;;14.70;47.27
29383;BME280;16365;51.598;7.668;2023-04-07T01:50:13;100701.84;;;14.72;46.97
29383;BME280;16365;51.598;7.668;2023-04-07T01:52:40;100704.28;;;14.74;47.28
29383;BME280;16365;51.598;7.668;2023-04-07T01:55:09;100708.72;;;14.75;47.46
29383;BME280;16365;51.598;7.668;2023-04-07T01:57:36;100711.13;;;14.76;47.08
29383;BME280;16365;51.598;7.668;2023-04-07T02:00:03;100714.72;;;14.77;47.28
29383;BME280;16365;51.598;7.668;2023-04-07T02:02:33;100702.75;;;14.76;47.62
29383;BME280;16365;51.598;7.668;2023-04-07T02:05:04;100710.41;;;14.79;47.69
29383;BME280;16365;51.598;7.668;2023-04-07T02:07:40;100700.88;;;14.80;48.24
29383;BME280;16365;51.598;7.668;2023-04-07T02:10:11;100702.13;;;14.83;47.70
29383;BME280;16365;51.598;7.668;2023-04-07T02:12:39;100708.19;;;14.85;47.34
29383;BME280;16365;51.598;7.668;2023-04-07T02:15:08;100701.44;;;14.86;47.43
29383;BME280;16365;51.598;7.668;2023-04-07T02:17:52;100706.22;;;14.85;47.86
29383;BME280;16365;51.598;7.668;2023-04-07T02:20:20;100709.91;;;14.89;47.21
29383;BME280;16365;51.598;7.668;2023-04-07T02:22:47;100707.94;;;14.90;47.22
29383;BME280;16365;51.598;7.668;2023-04-07T02:25:31;100699.88;;;14.88;48.32
29383;BME280;16365;51.598;7.668;2023-04-07T02:27:59;100700.69;;;14.89;47.17
29383;BME280;16365;51.598;7.668;2023-04-07T02:30:26;100698.38;;;14.91;47.38
29383;BME280;16365;51.598;7.668;2023-04-07T02:32:53;100697.91;;;14.89;47.38
29383;BME280;16365;51.598;7.668;2023-04-07T02:35:20;100695.94;;;14.89;47.39
29383;BME280;16365;51.598;7.668;2023-04-07T02:37:46;100704.31;;;14.89;47.06
29383;BME280;16365;51.598;7.668;2023-04-07T02:40:13;100701.53;;;14.89;47.00
29383;BME280;16365;51.598;7.668;2023-04-07T02:42:40;100699.56;;;14.90;47.50
29383;BME280;16365;51.598;7.668;2023-04-07T02:45:08;100700.69;;;14.89;47.69
29383;BME280;16365;51.598;7.668;2023-04-07T02:47:35;100702.69;;;14.88;47.63
29383;BME280;16365;51.598;7.668;2023-04-07T02:50:02;100701.06;;;14.87;47.60
29383;BME280;16365;51.598;7.668;2023-04-07T02:52:29;100696.66;;;14.86;47.85
29383;BME280;16365;51.598;7.668;2023-04-07T02:54:56;100701.44;;;14.86;47.74
29383;BME280;16365;51.598;7.668;2023-04-07T02:57:22;100699.81;;;14.85;47.37
29383;BME280;16365;51.598;7.668;2023-04-07T02:59:48;100697.03;;;14.85;47.70
29383;BME280;16365;51.598;7.668;2023-04-07T03:02:15;100690.63;;;14.84;47.35
29383;BME280;16365;51.598;7.668;2023-04-07T03:04:41;100697.84;;;14.85;47.74
29383;BME280;16365;51.598;7.668;2023-04-07T03:07:08;100700.97;;;14.84;47.39
29383;BME280;16365;51.598;7.668;2023-04-07T03:09:34;100705.41;;;14.85;47.67
29383;BME280;16365;51.598;7.668;2023-04-07T03:12:01;100700.97;;;14.84;47.40
29383;BME280;16365;51.598;7.668;2023-04-07T03:14:28;100703.31;;;14.82;47.32
29383;BME280;16365;51.598;7.668;2023-04-07T03:16:54;100692.50;;;14.80;47.77
29383;BME280;16365;51.598;7.668;2023-04-07T03:19:21;100707.28;;;14.81;47.70
29383;BME280;16365;51.598;7.668;2023-04-07T03:21:48;100698.91;;;14.81;47.62
29383;BME280;16365;51.598;7.668;2023-04-07T03:24:14;100697.28;;;14.80;48.07
29383;BME280;16365;51.598;7.668;2023-04-07T03:26:41;100698.09;;;14.80;47.68
29383;BME280;16365;51.598;7.668;2023-04-07T03:29:07;100705.66;;;14.80;48.00
29383;BME280;16365;51.598;7.668;2023-04-07T03:31:34;100698.09;;;14.80;47.92
29383;BME280;16365;51.598;7.668;2023-04-07T03:34:03;100703.69;;;14.80;47.71
29383;BME280;16365;51.598;7.668;2023-04-07T03:36:30;100701.22;;;14.79;47.45
29383;BME280;16365;51.598;7.668;2023-04-07T03:38:57;100709.97;;;14.77;47.92
29383;BME280;16365;51.598;7.668;2023-04-07T03:41:23;100700.78;;;14.77;47.72
29383;BME280;16365;51.598;7.668;2023-04-07T03:43:50;100702.75;;;14.76;48.20
29383;BME280;16365;51.598;7.668;2023-04-07T03:46:19;100703.94;;;14.75;47.84
29383;BME280;16365;51.598;7.668;2023-04-07T03:48:46;100705.91;;;14.75;47.96
29383;BME280;16365;51.598;7.668;2023-04-07T03:51:13;100703.94;;;14.75;47.68
29383;BME280;16365;51.598;7.668;2023-04-07T03:53:40;100702.28;;;14.74;48.14
29383;BME280;16365;51.598;7.668;2023-04-07T03:56:07;100702.28;;;14.74;47.75
29383;BME280;16365;51.598;7.668;2023-04-07T03:58:33;100702.66;;;14.73;48.18
29383;BME280;16365;51.598;7.668;2023-04-07T04:01:00;100703.03;;;14.71;47.98
29383;BME280;16365;51.598;7.668;2023-04-07T04:03:26;100707.31;;;14.69;48.09
29383;BME280;16365;51.598;7.668;2023-04-07T04:05:53;100711.28;;;14.68;47.87
29383;BME280;16365;51.598;7.668;2023-04-07T04:08:20;100707.25;;;14.65;47.82
29383;BME280;16365;51.598;7.668;2023-04-07T04:10:46;100713.97;;;14.64;47.87
29383;BME280;16365;51.598;7.668;2023-04-07T04:13:13;100706.78;;;14.63;47.86
29383;BME280;16365;51.598;7.668;2023-04-07T04:15:39;100713.53;;;14.62;48.33
29383;BME280;16365;51.598;7.668;2023-04-07T04:18:06;100710.72;;;14.62;48.10
29383;BME280;16365;51.598;7.668;2023-04-07T04:20:34;100717.94;;;14.63;48.22
29383;BME280;16365;51.598;7.668;2023-04-07T04:23:00;100717.50;;;14.61;48.00
29383;BME280;16365;51.598;7.668;2023-04-07T04:25:27;100704.69;;;14.60;48.43
29383;BME280;16365;51.598;7.668;2023-04-07T04:27:54;100712.25;;;14.59;48.34
29383;BME280;16365;51.598;7.668;2023-04-07T04:30:21;100712.59;;;14.58;48.49
29383;BME280;16365;51.598;7.668;2023-04-07T04:32:47;100711.00;;;14.57;48.19
29383;BME280;16365;51.598;7.668;2023-04-07T04:35:16;100711.78;;;14.57;48.10
29383;BME280;16365;51.598;7.668;2023-04-07T04:37:42;100717.38;;;14.57;48.38
29383;BME280;16365;51.598;7.668;2023-04-07T04:40:09;100714.59;;;14.57;48.45
29383;BME280;16365;51.598;7.668;2023-04-07T04:42:36;100718.19;;;14.58;48.46
29383;BME280;16365;51.598;7.668;2023-04-07T04:45:03;100725.75;;;14.57;48.76
29383;BME280;16365;51.598;7.668;2023-04-07T04:47:29;100726.56;;;14.58;48.66
29383;BME280;16365;51.598;7.668;2023-04-07T04:49:57;100721.78;;;14.58;48.73
29383;BME280;16365;51.598;7.668;2023-04-07T04:52:23;100724.22;;;14.60;48.49
29383;BME280;16365;51.598;7.668;2023-04-07T04:54:50;100723.41;;;14.59;48.54
29383;BME280;16365;51.598;7.668;2023-04-07T04:57:16;100722.25;;;14.60;48.57
29383;BME280;16365;51.598;7.668;2023-04-07T04:59:43;100737.03;;;14.61;48.38
29383;BME280;16365;51.598;7.668;2023-04-07T05:02:09;100731.44;;;14.61;48.65
29383;BME280;16365;51.598;7.668;2023-04-07T05:04:36;100735.84;;;14.62;48.87
29383;BME280;16365;51.598;7.668;2023-04-07T05:07:03;100735.84;;;14.62;48.82
29383;BME280;16365;51.598;7.668;2023-04-07T05:09:32;100733.88;;;14.62;48.55
29383;BME280;16365;51.598;7.668;2023-04-07T05:11:59;100738.28;;;14.63;48.84
29383;BME280;16365;51.598;7.668;2023-04-07T05:14:27;100737.47;;;14.63;49.03
29383;BME280;16365;51.598;7.668;2023-04-07T05:16:53;100743.03;;;14.63;48.75
29383;BME280;16365;51.598;7.668;2023-04-07T05:19:20;100739.44;;;14.62;48.75
29383;BME280;16365;51.598;7.668;2023-04-07T05:21:46;100741.44;;;14.62;48.73
29383;BME280;16365;51.598;7.668;2023-04-07T05:24:13;100740.25;;;14.63;48.70
29383;BME280;16365;51.598;7.668;2023-04-07T05:26:39;100749.44;;;14.63;48.74
29383;BME280;16365;51.598;7.668;2023-04-07T05:29:06;100744.22;;;14.62;48.80
29383;BME280;16365;51.598;7.668;2023-04-07T05:31:32;100745.03;;;14.62;49.09
29383;BME280;16365;51.598;7.668;2023-04-07T05:34:02;100749.44;;;14.63;48.53
29383;BME280;16365;51.598;7.668;2023-04-07T05:36:29;100751.41;;;14.63;48.85
29383;BME280;16365;51.598;7.668;2023-04-07T05:38:56;100747.81;;;14.62;48.86
29383;BME280;16365;51.598;7.668;2023-04-07T05:41:24;100755.38;;;14.62;48.66
29383;BME280;16365;51.598;7.668;2023-04-07T05:43:50;100748.63;;;14.63;49.04
29383;BME280;16365;51.598;7.668;2023-04-07T05:46:18;100752.94;;;14.60;49.02
29383;BME280;16365;51.598;7.668;2023-04-07T05:48:45;100755.75;;;14.60;48.79
29383;BME280;16365;51.598;7.668;2023-04-07T05:51:14;100760.47;;;14.60;48.48
29383;BME280;16365;51.598;7.668;2023-04-07T05:53:41;100761.31;;;14.60;48.53
29383;BME280;16365;51.598;7.668;2023-04-07T05:56:07;100758.53;;;14.60;48.98
29383;BME280;16365;51.598;7.668;2023-04-07T05:58:33;100762.13;;;14.61;49.15
29383;BME280;16365;51.598;7.668;2023-04-07T06:01:00;100760.47;;;14.60;49.15
29383;BME280;16365;51.598;7.668;2023-04-07T06:03:28;100762.94;;;14.61;49.20
29383;BME280;16365;51.598;7.668;2023-04-07T06:05:56;100774.09;;;14.61;49.10
29383;BME280;16365;51.598;7.668;2023-04-07T06:08:26;100768.97;;;14.63;48.87
29383;BME280;16365;51.598;7.668;2023-04-07T06:10:53;100772.22;;;14.65;48.90
29383;BME280;16365;51.598;7.668;2023-04-07T06:13:20;100778.63;;;14.66;49.25
29383;BME280;16365;51.598;7.668;2023-04-07T06:15:46;100779.44;;;14.67;49.10
29383;BME280;16365;51.598;7.668;2023-04-07T06:18:15;100781.84;;;14.68;49.41
29383;BME280;16365;51.598;7.668;2023-04-07T06:20:41;100782.78;;;14.72;48.89
29383;BME280;16365;51.598;7.668;2023-04-07T06:23:08;100781.16;;;14.71;49.08
29383;BME280;16365;51.598;7.668;2023-04-07T06:25:35;100789.88;;;14.70;49.21
29383;BME280;16365;51.598;7.668;2023-04-07T06:28:01;100789.06;;;14.69;49.10
29383;BME280;16365;51.598;7.668;2023-04-07T06:30:28;100789.88;;;14.70;49.21
29383;BME280;16365;51.598;7.668;2023-04-07T06:32:54;100789.06;;;14.69;49.17
29383;BME280;16365;51.598;7.668;2023-04-07T06:35:21;100789.88;;;14.70;49.25
29383;BME280;16365;51.598;7.668;2023-04-07T06:37:48;100796.28;;;14.70;49.10
29383;BME280;16365;51.598;7.668;2023-04-07T06:40:14;100801.03;;;14.70;49.40
29383;BME280;16365;51.598;7.668;2023-04-07T06:42:41;100801.03;;;14.70;49.12
29383;BME280;16365;51.598;7.668;2023-04-07T06:45:08;100793.81;;;14.69;49.04
29383;BME280;16365;51.598;7.668;2023-04-07T06:47:35;100802.69;;;14.71;49.41
29383;BME280;16365;51.598;7.668;2023-04-07T06:50:01;100802.69;;;14.71;49.38
29383;BME280;16365;51.598;7.668;2023-04-07T06:52:28;100807.91;;;14.72;49.33
29383;BME280;16365;51.598;7.668;2023-04-07T06:54:54;100803.13;;;14.73;49.34
29383;BME280;16365;51.598;7.668;2023-04-07T06:57:21;100812.31;;;14.73;49.49
29383;BME280;16365;51.598;7.668;2023-04-07T06:59:48;100809.19;;;14.75;49.19
29383;BME280;16365;51.598;7.668;2023-04-07T07:02:15;100813.59;;;14.76;49.54
29383;BME280;16365;51.598;7.668;2023-04-07T07:04:42;100806.03;;;14.76;49.52
29383;BME280;16365;51.598;7.668;2023-04-07T07:07:08;100806.84;;;14.77;49.79
29383;BME280;16365;51.598;7.668;2023-04-07T07:09:35;100814.03;;;14.78;49.08
29383;BME280;16365;51.598;7.668;2023-04-07T07:12:02;100815.66;;;14.79;49.37
29383;BME280;16365;51.598;7.668;2023-04-07T07:14:29;100816.03;;;14.77;49.33
29383;BME280;16365;51.598;7.668;2023-04-07T07:16:57;100819.97;;;14.76;49.54
29383;BME280;16365;51.598;7.668;2023-04-07T07:19:23;100814.03;;;14.78;49.47
29383;BME280;16365;51.598;7.668;2023-04-07T07:21:50;100818.00;;;14.77;49.33
29383;BME280;16365;51.598;7.668;2023-04-07T07:24:17;100818.00;;;14.77;49.23
29383;BME280;16365;51.598;7.668;2023-04-07T07:26:43;100832.41;;;14.79;49.81
29383;BME280;16365;51.598;7.668;2023-04-07T07:29:11;100823.69;;;14.80;49.56
29383;BME280;16365;51.598;7.668;2023-04-07T07:31:38;100836.94;;;14.83;49.99
29383;BME280;16365;51.598;7.668;2023-04-07T07:34:04;100827.41;;;14.84;49.59
29383;BME280;16365;51.598;7.668;2023-04-07T07:36:31;100842.25;;;14.88;49.65
29383;BME280;16365;51.598;7.668;2023-04-07T07:38:59;100841.56;;;14.91;49.81
29383;BME280;16365;51.598;7.668;2023-04-07T07:41:26;100841.66;;;14.95;49.75
29383;BME280;16365;51.598;7.668;2023-04-07T07:43:53;100848.50;;;14.98;49.58
29383;BME280;16365;51.598;7.668;2023-04-07T07:46:19;100841.41;;;15.00;49.78
29383;BME280;16365;51.598;7.668;2023-04-07T07:48:46;100847.56;;;15.06;50.20
29383;BME280;16365;51.598;7.668;2023-04-07T07:51:12;100841.59;;;15.07;50.28
29383;BME280;16365;51.598;7.668;2023-04-07T07:53:38;100856.13;;;15.13;50.16
29383;BME280;16365;51.598;7.668;2023-04-07T07:56:05;100849.41;;;15.14;49.96
29383;BME280;16365;51.598;7.668;2023-04-07T07:58:31;100856.72;;;15.19;49.94
29383;BME280;16365;51.598;7.668;2023-04-07T08:00:58;100862.75;;;15.21;49.56
29383;BME280;16365;51.598;7.668;2023-04-07T08:03:24;100867.63;;;15.24;49.55
29383;BME280;16365;51.598;7.668;2023-04-07T08:05:51;100874.47;;;15.26;49.73
29383;BME280;16365;51.598;7.668;2023-04-07T08:08:17;100882.16;;;15.29;49.87
29383;BME280;16365;51.598;7.668;2023-04-07T08:10:45;100873.41;;;15.31;49.54
29383;BME280;16365;51.598;7.668;2023-04-07T08:13:12;100882.69;;;15.35;49.67
29383;BME280;16365;51.598;7.668;2023-04-07T08:15:38;100882.00;;;15.38;49.39
29383;BME280;16365;51.598;7.668;2023-04-07T08:18:05;100885.59;;;15.38;49.51
29383;BME280;16365;51.598;7.668;2023-04-07T08:20:32;100891.63;;;15.40;49.58
29383;BME280;16365;51.598;7.668;2023-04-07T08:22:59;100890.81;;;15.40;49.51
29383;BME280;16365;51.598;7.668;2023-04-07T08:25:28;100898.03;;;15.41;49.59
29383;BME280;16365;51.598;7.668;2023-04-07T08:27:54;100894.91;;;15.42;49.47
29383;BME280;16365;51.598;7.668;2023-04-07T08:30:21;100902.91;;;15.44;49.40
29383;BME280;16365;51.598;7.668;2023-04-07T08:32:49;100894.91;;;15.42;49.49
29383;BME280;16365;51.598;7.668;2023-04-07T08:35:16;100899.75;;;15.46;49.51
29383;BME280;16365;51.598;7.668;2023-04-07T08:37:42;100902.19;;;15.47;49.79
29383;BME280;16365;51.598;7.668;2023-04-07T08:40:10;100913.03;;;15.49;49.80
29383;BME280;16365;51.598;7.668;2023-04-07T08:42:41;100909.06;;;15.50;50.18
29383;BME280;16365;51.598;7.668;2023-04-07T08:45:09;100910.78;;;15.54;49.65
29383;BME280;16365;51.598;7.668;2023-04-07T08:47:36;100910.78;;;15.54;49.52
29383;BME280;16365;51.598;7.668;2023-04-07T08:50:05;100906.81;;;15.55;49.65
29383;BME280;16365;51.598;7.668;2023-04-07T08:52:53;100911.97;;;15.53;50.34
29383;BME280;16365;51.598;7.668;2023-04-07T08:55:22;100909.72;;;15.59;49.50
29383;BME280;16365;51.598;7.668;2023-04-07T08:57:49;100906.91;;;15.59;49.57
29383;BME280;16365;51.598;7.668;2023-04-07T09:00:17;100912.59;;;15.62;49.06
29383;BME280;16365;51.598;7.668;2023-04-07T09:02:44;100909.81;;;15.62;49.24
29383;BME280;16365;51.598;7.668;2023-04-07T09:05:11;100914.59;;;15.62;49.50
29383;BME280;16365;51.598;7.668;2023-04-07T09:07:40;100918.19;;;15.62;49.30
29383;BME280;16365;51.598;7.668;2023-04-07T09:10:09;100918.19;;;15.62;49.15
29383;BME280;16365;51.598;7.668;2023-04-07T09:12:36;100922.13;;;15.61;49.13
29383;BME280;16365;51.598;7.668;2023-04-07T09:15:06;100927.28;;;15.59;49.33
29383;BME280;16365;51.598;7.668;2023-04-07T09:17:34;100926.47;;;15.59;49.14
29383;BME280;16365;51.598;7.668;2023-04-07T09:20:02;100937.19;;;15.57;49.55
29383;BME280;16365;51.598;7.668;2023-04-07T09:22:39;100929.53;;;15.54;50.08
29383;BME280;16365;51.598;7.668;2023-04-07T09:25:11;100938.84;;;15.58;49.04
29383;BME280;16365;51.598;7.668;2023-04-07T09:27:39;100934.38;;;15.57;49.33
29383;BME280;16365;51.598;7.668;2023-04-07T09:30:14;100933.94;;;15.55;49.84
29383;BME280;16365;51.598;7.668;2023-04-07T09:32:43;100931.59;;;15.57;49.83
29383;BME280;16365;51.598;7.668;2023-04-07T09:35:10;100935.31;;;15.61;49.20
29383;BME280;16365;51.598;7.668;2023-04-07T09:37:37;100933.69;;;15.60;49.31
29383;BME280;16365;51.598;7.668;2023-04-07T09:40:03;100933.31;;;15.61;49.24
29383;BME280;16365;51.598;7.668;2023-04-07T09:42:31;100940.91;;;15.61;49.28
29383;BME280;16365;51.598;7.668;2023-04-07T09:45:00;100929.72;;;15.61;49.36
29383;BME280;16365;51.598;7.668;2023-04-07T09:47:31;100938.84;;;15.58;49.33
29383;BME280;16365;51.598;7.668;2023-04-07T09:49:58;100933.25;;;15.58;49.01
29383;BME280;16365;51.598;7.668;2023-04-07T09:52:48;100937.81;;;15.50;49.63
29383;BME280;16365;51.598;7.668;2023-04-07T09:55:15;100945.00;;;15.51;49.06
29383;BME280;16365;51.598;7.668;2023-04-07T09:57:43;100945.75;;;15.48;49.48
29383;BME280;16365;51.598;7.668;2023-04-07T10:00:11;100948.53;;;15.48;49.29
29383;BME280;16365;51.598;7.668;2023-04-07T10:02:37;100949.34;;;15.49;49.56
29383;BME280;16365;51.598;7.668;2023-04-07T10:05:04;100948.53;;;15.48;49.83
29383;BME280;16365;51.598;7.668;2023-04-07T10:07:31;100956.56;;;15.50;49.86
29383;BME280;16365;51.598;7.668;2023-04-07T10:09:58;100947.81;;;15.51;49.57
29383;BME280;16365;51.598;7.668;2023-04-07T10:12:25;100951.88;;;15.54;49.76
29383;BME280;16365;51.598;7.668;2023-04-07T10:14:53;100959.09;;;15.55;49.77
29383;BME280;16365;51.598;7.668;2023-04-07T10:17:20;100960.00;;;15.59;49.98
29383;BME280;16365;51.598;7.668;2023-04-07T10:19:48;100966.03;;;15.61;49.69
29383;BME280;16365;51.598;7.668;2023-04-07T10:22:16;100962.91;;;15.62;49.75
29383;BME280;16365;51.598;7.668;2023-04-07T10:25:07;100965.72;;;15.62;50.55
29383;BME280;16365;51.598;7.668;2023-04-07T10:27:42;100968.63;;;15.66;49.86
29383;BME280;16365;51.598;7.668;2023-04-07T10:30:27;100973.41;;;15.65;50.09
29383;BME280;16365;51.598;7.668;2023-04-07T10:32:54;100970.72;;;15.69;49.29
29383;BME280;16365;51.598;7.668;2023-04-07T10:35:22;100969.91;;;15.68;49.61
29383;BME280;16365;51.598;7.668;2023-04-07T10:38:21;100976.19;;;15.65;50.53
29383;BME280;16365;51.598;7.668;2023-04-07T10:40:47;100971.53;;;15.70;49.53
29383;BME280;16365;51.598;7.668;2023-04-07T10:43:40;100976.66;;;15.67;50.69
29383;BME280;16365;51.598;7.668;2023-04-07T10:46:07;100984.00;;;15.72;49.63
29383;BME280;16365;51.598;7.668;2023-04-07T10:48:34;100986.41;;;15.74;49.65
29383;BME280;16365;51.598;7.668;2023-04-07T10:53:30;100987.59;;;15.73;49.53
29383;BME280;16365;51.598;7.668;2023-04-07T10:55:56;100991.56;;;15.72;49.42
29383;BME280;16365;51.598;7.668;2023-04-07T10:58:31;101005.88;;;15.70;49.53
29383;BME280;16365;51.598;7.668;2023-04-07T11:03:38;101001.81;;;15.67;49.19
29383;BME280;16365;51.598;7.668;2023-04-07T11:06:07;100998.91;;;15.64;49.16
29383;BME280;16365;51.598;7.668;2023-04-07T11:11:02;100992.38;;;15.60;49.51
29383;BME280;16365;51.598;7.668;2023-04-07T11:13:40;100998.66;;;15.57;50.23
29383;BME280;16365;51.598;7.668;2023-04-07T11:16:08;101001.94;;;15.59;49.68
29383;BME280;16365;51.598;7.668;2023-04-07T11:18:35;101001.94;;;15.59;49.93
29383;BME280;16365;51.598;7.668;2023-04-07T11:21:03;101006.34;;;15.60;49.63
29383;BME280;16365;51.598;7.668;2023-04-07T11:23:38;101012.31;;;15.58;50.02
29383;BME280;16365;51.598;7.668;2023-04-07T11:26:04;101019.97;;;15.61;49.45
29383;BME280;16365;51.598;7.668;2023-04-07T11:28:31;101014.75;;;15.60;49.61
29383;BME280;16365;51.598;7.668;2023-04-07T11:30:58;101015.91;;;15.59;49.58
29383;BME280;16365;51.598;7.668;2023-04-07T11:33:30;101015.44;;;15.57;49.66
29383;BME280;16365;51.598;7.668;2023-04-07T11:35:59;101026.28;;;15.58;49.63
29383;BME280;16365;51.598;7.668;2023-04-07T11:38:37;101019.06;;;15.57;49.09
29383;BME280;16365;51.598;7.668;2023-04-07T11:41:14;101022.56;;;15.54;49.56
29383;BME280;16365;51.598;7.668;2023-04-07T11:43:40;101038.97;;;15.56;49.20
29383;BME280;16365;51.598;7.668;2023-04-07T11:46:12;101031.31;;;15.53;49.31
29383;BME280;16365;51.598;7.668;2023-04-07T11:48:41;101033.63;;;15.51;49.74
29383;BME280;16365;51.598;7.668;2023-04-07T11:51:18;101031.19;;;15.49;50.20
29383;BME280;16365;51.598;7.668;2023-04-07T11:53:45;101035.72;;;15.54;49.36
29383;BME280;16365;51.598;7.668;2023-04-07T11:56:16;101043.31;;;15.53;49.46
29383;BME280;16365;51.598;7.668;2023-04-07T11:58:51;101047.28;;;15.52;49.54
29383;BME280;16365;51.598;7.668;2023-04-07T12:01:18;101046.09;;;15.53;49.21
29383;BME280;16365;51.598;7.668;2023-04-07T12:06:28;101053.19;;;15.51;49.75
29383;BME280;16365;51.598;7.668;2023-04-07T12:08:56;101050.50;;;15.54;49.44
29383;BME280;16365;51.598;7.668;2023-04-07T12:11:22;101053.66;;;15.53;49.41
29383;BME280;16365;51.598;7.668;2023-04-07T12:13:50;101054.13;;;15.55;49.18
29383;BME280;16365;51.598;7.668;2023-04-07T12:16:18;101056.91;;;15.55;49.29
29383;BME280;16365;51.598;7.668;2023-04-07T12:18:45;101055.28;;;15.54;49.71
29383;BME280;16365;51.598;7.668;2023-04-07T12:21:11;101054.13;;;15.55;49.57
29383;BME280;16365;51.598;7.668;2023-04-07T12:23:38;101054.94;;;15.55;49.61
29383;BME280;16365;51.598;7.668;2023-04-07T12:26:04;101060.88;;;15.54;49.77
29383;BME280;16365;51.598;7.668;2023-04-07T12:28:31;101064.13;;;15.56;50.13
29383;BME280;16365;51.598;7.668;2023-04-07T12:30:58;101072.19;;;15.57;50.25
29383;BME280;16365;51.598;7.668;2023-04-07T12:33:25;101067.41;;;15.58;50.21
29383;BME280;16365;51.598;7.668;2023-04-07T12:35:51;101063.44;;;15.59;50.07
29383;BME280;16365;51.598;7.668;2023-04-07T12:38:18;101067.84;;;15.60;50.17
29383;BME280;16365;51.598;7.668;2023-04-07T12:40:44;101070.28;;;15.61;50.37
29383;BME280;16365;51.598;7.668;2023-04-07T12:43:11;101071.13;;;15.62;50.05
29383;BME280;16365;51.598;7.668;2023-04-07T12:45:38;101072.25;;;15.61;49.74
29383;BME280;16365;51.598;7.668;2023-04-07T12:48:05;101066.22;;;15.59;49.74
29383;BME280;16365;51.598;7.668;2023-04-07T12:50:31;101076.59;;;15.58;49.90
29383;BME280;16365;51.598;7.668;2023-04-07T12:52:58;101072.50;;;15.56;50.00
29383;BME280;16365;51.598;7.668;2023-04-07T12:55:25;101079.25;;;15.55;50.06
29383;BME280;16365;51.598;7.668;2023-04-07T12:57:51;101084.03;;;15.54;50.20
29383;BME280;16365;51.598;7.668;2023-04-07T13:00:17;101080.44;;;15.54;50.19
29383;BME280;16365;51.598;7.668;2023-04-07T13:02:44;101086.84;;;15.54;50.12
29383;BME280;16365;51.598;7.668;2023-04-07T13:05:10;101088.00;;;15.53;49.98
29383;BME280;16365;51.598;7.668;2023-04-07T13:07:38;101086.03;;;15.54;50.32
29383;BME280;16365;51.598;7.668;2023-04-07T13:10:05;101081.63;;;15.53;50.33